createdAt,value
2024-02-14T00:00:29.462Z,3.20
2024-02-14T00:01:29.453Z,3.19
2024-02-14T00:02:29.426Z,3.17
2024-02-14T00:03:29.419Z,3.19
2024-02-14T00:04:29.313Z,3.19
2024-02-14T00:05:29.292Z,3.17
2024-02-14T00:06:29.266Z,3.16
2024-02-14T00:07:29.202Z,3.16
2024-02-14T00:08:29.212Z,3.16
2024-02-14T00:09:29.097Z,3.13
2024-02-14T00:10:29.071Z,3.13
2024-02-14T00:11:29.045Z,3.12
2024-02-14T00:12:28.979Z,3.12
2024-02-14T00:13:29.034Z,3.13
2024-02-14T00:14:28.955Z,3.16
2024-02-14T00:15:28.871Z,3.17
2024-02-14T00:16:28.831Z,3.16
2024-02-14T00:17:28.885Z,3.19
2024-02-14T00:18:28.998Z,3.16
2024-02-14T00:19:28.779Z,3.17
2024-02-14T00:20:28.718Z,3.16
2024-02-14T00:21:28.625Z,3.17
2024-02-14T00:22:28.590Z,3.17
2024-02-14T00:23:28.597Z,3.17
2024-02-14T00:24:28.558Z,3.13
2024-02-14T00:25:28.482Z,3.16
2024-02-14T00:26:28.493Z,3.13
2024-02-14T00:27:28.409Z,3.13
2024-02-14T00:28:28.705Z,3.09
2024-02-14T00:29:28.395Z,3.09
2024-02-14T00:30:30.755Z,3.03
2024-02-14T00:31:28.197Z,3.02
2024-02-14T00:32:28.479Z,3.02
2024-02-14T00:33:28.301Z,3.01
2024-02-14T00:34:28.245Z,2.99
2024-02-14T00:35:28.229Z,3.01
2024-02-14T00:36:28.017Z,2.98
2024-02-14T00:37:27.968Z,2.99
2024-02-14T00:38:28.016Z,2.99
2024-02-14T00:39:27.908Z,2.99
2024-02-14T00:40:27.857Z,2.98
2024-02-14T00:41:27.894Z,2.98
2024-02-14T00:42:27.795Z,2.94
2024-02-14T00:43:27.744Z,2.94
2024-02-14T00:44:27.780Z,2.94
2024-02-14T00:45:27.653Z,2.93
2024-02-14T00:46:27.631Z,2.96
2024-02-14T00:47:27.610Z,2.96
2024-02-14T00:48:27.711Z,2.96
2024-02-14T00:49:27.777Z,2.96
2024-02-14T00:50:27.590Z,2.99
2024-02-14T00:51:27.393Z,3.02
2024-02-14T00:52:27.378Z,3.02
2024-02-14T00:53:27.391Z,3.02
2024-02-14T00:54:27.331Z,3.02
2024-02-14T00:55:27.252Z,3.03
2024-02-14T00:56:27.251Z,3.01
2024-02-14T00:57:27.245Z,3.01
2024-02-14T00:58:27.134Z,2.99
2024-02-14T00:59:27.169Z,2.98
2024-02-14T01:00:27.126Z,2.96
2024-02-14T01:01:27.006Z,2.99
2024-02-14T01:02:27.048Z,2.94
2024-02-14T01:03:26.966Z,2.98
2024-02-14T01:04:26.973Z,2.98
2024-02-14T01:05:26.911Z,2.96
2024-02-14T01:06:26.939Z,2.99
2024-02-14T01:07:26.770Z,2.99
2024-02-14T01:08:26.752Z,3.01
2024-02-14T01:09:26.667Z,3.02
2024-02-14T01:10:26.674Z,3.02
2024-02-14T01:11:26.675Z,3.02
2024-02-14T01:12:26.552Z,3.02
2024-02-14T01:13:26.500Z,3.02
2024-02-14T01:14:26.520Z,3.03
2024-02-14T01:15:26.454Z,3.01
2024-02-14T01:16:26.373Z,3.01
2024-02-14T01:17:26.480Z,3.02
2024-02-14T01:18:26.603Z,3.05
2024-02-14T01:19:26.243Z,3.03
2024-02-14T01:20:26.265Z,3.03
2024-02-14T01:21:26.136Z,3.05
2024-02-14T01:22:26.083Z,3.02
2024-02-14T01:23:26.079Z,3.02
2024-02-14T01:24:25.996Z,3.01
2024-02-14T01:25:25.984Z,3.01
2024-02-14T01:26:25.949Z,3.01
2024-02-14T01:27:25.880Z,3.01
2024-02-14T01:28:25.800Z,3.01
2024-02-14T01:29:25.840Z,3.01
2024-02-14T01:30:25.764Z,3.02
2024-02-14T01:31:25.653Z,3.01
2024-02-14T01:32:25.628Z,3.01
2024-02-14T01:33:25.722Z,2.98
2024-02-14T01:34:25.719Z,2.96
2024-02-14T01:35:25.530Z,2.96
2024-02-14T01:36:25.459Z,2.96
2024-02-14T01:37:25.413Z,2.94
2024-02-14T01:38:25.404Z,2.91
2024-02-14T01:39:25.322Z,2.91
2024-02-14T01:40:25.313Z,2.90
2024-02-14T01:41:25.287Z,2.90
2024-02-14T01:42:25.212Z,2.90
2024-02-14T01:43:25.138Z,2.93
2024-02-14T01:44:25.156Z,2.91
2024-02-14T01:45:25.110Z,2.93
2024-02-14T01:46:25.037Z,2.90
2024-02-14T01:47:25.032Z,2.90
2024-02-14T01:48:25.153Z,2.90
2024-02-14T01:49:24.965Z,2.91
2024-02-14T01:50:24.990Z,2.91
2024-02-14T01:51:24.830Z,2.91
2024-02-14T01:52:24.799Z,2.91
2024-02-14T01:53:24.781Z,2.90
2024-02-14T01:54:24.709Z,2.91
2024-02-14T01:55:24.744Z,2.91
2024-02-14T01:56:24.729Z,2.91
2024-02-14T01:57:24.579Z,2.93
2024-02-14T01:58:24.552Z,2.91
2024-02-14T01:59:24.533Z,2.88
2024-02-14T02:00:24.465Z,2.90
2024-02-14T02:01:24.496Z,2.91
2024-02-14T02:02:24.451Z,2.90
2024-02-14T02:03:24.420Z,2.88
2024-02-14T02:04:24.308Z,2.91
2024-02-14T02:05:24.305Z,2.93
2024-02-14T02:06:24.294Z,2.91
2024-02-14T02:07:24.208Z,2.93
2024-02-14T02:08:24.213Z,2.94
2024-02-14T02:09:24.120Z,2.96
2024-02-14T02:10:24.094Z,2.94
2024-02-14T02:11:24.129Z,2.94
2024-02-14T02:12:23.996Z,2.93
2024-02-14T02:13:23.956Z,2.94
2024-02-14T02:14:23.937Z,2.91
2024-02-14T02:15:23.881Z,2.91
2024-02-14T02:16:23.871Z,2.88
2024-02-14T02:17:23.827Z,2.90
2024-02-14T02:18:23.913Z,2.90
2024-02-14T02:19:23.918Z,2.90
2024-02-14T02:20:23.740Z,2.90
2024-02-14T02:21:23.794Z,2.90
2024-02-14T02:22:23.594Z,2.90
2024-02-14T02:23:23.555Z,2.90
2024-02-14T02:24:23.503Z,2.87
2024-02-14T02:25:23.460Z,2.87
2024-02-14T02:26:23.422Z,2.85
2024-02-14T02:27:23.450Z,2.87
2024-02-14T02:28:23.341Z,2.85
2024-02-14T02:29:23.292Z,2.85
2024-02-14T02:30:23.289Z,2.85
2024-02-14T02:31:23.205Z,2.83
2024-02-14T02:32:23.248Z,2.85
2024-02-14T02:33:23.371Z,2.80
2024-02-14T02:34:23.262Z,2.81
2024-02-14T02:35:23.046Z,2.80
2024-02-14T02:36:23.027Z,2.81
2024-02-14T02:37:22.995Z,2.81
2024-02-14T02:38:22.934Z,2.80
2024-02-14T02:39:22.883Z,2.80
2024-02-14T02:40:22.873Z,2.81
2024-02-14T02:41:22.809Z,2.78
2024-02-14T02:42:22.847Z,2.78
2024-02-14T02:43:22.723Z,2.78
2024-02-14T02:44:22.707Z,2.76
2024-02-14T02:45:22.665Z,2.75
2024-02-14T02:46:22.616Z,2.75
2024-02-14T02:47:22.728Z,2.73
2024-02-14T02:48:22.674Z,2.73
2024-02-14T02:49:22.619Z,2.73
2024-02-14T02:50:22.445Z,2.70
2024-02-14T02:51:22.409Z,2.69
2024-02-14T02:52:22.419Z,2.69
2024-02-14T02:53:22.321Z,2.70
2024-02-14T02:54:22.297Z,2.72
2024-02-14T02:55:22.245Z,2.70
2024-02-14T02:56:22.206Z,2.73
2024-02-14T02:57:22.172Z,2.72
2024-02-14T02:58:22.167Z,2.72
2024-02-14T02:59:22.078Z,2.72
2024-02-14T03:00:22.038Z,2.73
2024-02-14T03:01:22.004Z,2.75
2024-02-14T03:02:22.016Z,2.75
2024-02-14T03:03:21.923Z,2.75
2024-02-14T03:04:22.461Z,2.75
2024-02-14T03:05:21.874Z,2.75
2024-02-14T03:06:22.062Z,2.75
2024-02-14T03:07:22.049Z,2.76
2024-02-14T03:08:21.750Z,2.78
2024-02-14T03:09:21.697Z,2.78
2024-02-14T03:10:21.676Z,2.78
2024-02-14T03:11:21.629Z,2.80
2024-02-14T03:12:21.720Z,2.78
2024-02-14T03:13:21.578Z,2.78
2024-02-14T03:14:21.593Z,2.80
2024-02-14T03:15:21.493Z,2.78
2024-02-14T03:16:21.468Z,2.80
2024-02-14T03:17:21.466Z,2.80
2024-02-14T03:18:21.533Z,2.81
2024-02-14T03:19:21.359Z,2.81
2024-02-14T03:20:21.528Z,2.81
2024-02-14T03:21:21.329Z,2.80
2024-02-14T03:22:21.283Z,2.80
2024-02-14T03:23:21.208Z,2.81
2024-02-14T03:24:21.203Z,2.80
2024-02-14T03:25:21.385Z,2.78
2024-02-14T03:26:21.121Z,2.73
2024-02-14T03:27:21.195Z,2.76
2024-02-14T03:28:21.057Z,2.76
2024-02-14T03:29:20.992Z,2.76
2024-02-14T03:30:21.006Z,2.80
2024-02-14T03:31:20.915Z,2.80
2024-02-14T03:32:20.949Z,2.76
2024-02-14T03:33:21.032Z,2.78
2024-02-14T03:34:20.897Z,2.78
2024-02-14T03:35:20.777Z,2.78
2024-02-14T03:36:20.755Z,2.75
2024-02-14T03:37:20.743Z,2.73
2024-02-14T03:38:20.686Z,2.72
2024-02-14T03:39:20.731Z,2.73
2024-02-14T03:40:20.631Z,2.72
2024-02-14T03:41:20.598Z,2.73
2024-02-14T03:42:20.586Z,2.73
2024-02-14T03:43:20.531Z,2.75
2024-02-14T03:44:20.518Z,2.73
2024-02-14T03:45:20.467Z,2.72
2024-02-14T03:46:20.453Z,2.70
2024-02-14T03:47:20.431Z,2.73
2024-02-14T03:48:20.504Z,2.73
2024-02-14T03:49:20.386Z,2.72
2024-02-14T03:50:20.349Z,2.72
2024-02-14T03:51:20.294Z,2.72
2024-02-14T03:52:20.317Z,2.70
2024-02-14T03:53:20.225Z,2.70
2024-02-14T03:54:21.740Z,2.69
2024-02-14T03:55:20.179Z,2.69
2024-02-14T03:56:20.120Z,2.69
2024-02-14T03:57:20.124Z,2.70
2024-02-14T03:58:20.067Z,2.70
2024-02-14T03:59:20.025Z,2.70
2024-02-14T04:00:20.047Z,2.72
2024-02-14T04:01:19.958Z,2.72
2024-02-14T04:02:19.979Z,2.73
2024-02-14T04:03:19.947Z,2.73
2024-02-14T04:04:19.987Z,2.73
2024-02-14T04:05:19.816Z,2.70
2024-02-14T04:06:19.904Z,2.69
2024-02-14T04:07:19.770Z,2.69
2024-02-14T04:08:19.894Z,2.69
2024-02-14T04:09:19.768Z,2.65
2024-02-14T04:10:19.635Z,2.63
2024-02-14T04:11:19.609Z,2.60
2024-02-14T04:12:19.589Z,2.58
2024-02-14T04:13:19.533Z,2.58
2024-02-14T04:14:19.510Z,2.54
2024-02-14T04:15:19.508Z,2.55
2024-02-14T04:16:19.459Z,2.55
2024-02-14T04:17:19.437Z,2.55
2024-02-14T04:18:19.878Z,2.57
2024-02-14T04:19:19.532Z,2.58
2024-02-14T04:20:19.290Z,2.63
2024-02-14T04:21:19.307Z,2.63
2024-02-14T04:22:19.241Z,2.65
2024-02-14T04:23:19.162Z,2.65
2024-02-14T04:24:19.140Z,2.66
2024-02-14T04:25:19.088Z,2.63
2024-02-14T04:26:19.067Z,2.60
2024-02-14T04:27:19.048Z,2.62
2024-02-14T04:28:19.004Z,2.65
2024-02-14T04:29:18.941Z,2.66
2024-02-14T04:30:19.026Z,2.70
2024-02-14T04:31:18.875Z,2.70
2024-02-14T04:32:18.902Z,2.72
2024-02-14T04:34:18.909Z,2.73
2024-02-14T04:35:18.742Z,2.75
2024-02-14T04:36:18.724Z,2.76
2024-02-14T04:37:18.712Z,2.78
2024-02-14T04:38:18.643Z,2.78
2024-02-14T04:39:18.610Z,2.80
2024-02-14T04:40:18.576Z,2.81
2024-02-14T04:41:18.528Z,2.81
2024-02-14T04:42:18.669Z,2.81
2024-02-14T04:43:18.461Z,2.84
2024-02-14T04:44:18.434Z,2.85
2024-02-14T04:45:18.473Z,2.85
2024-02-14T04:46:18.374Z,2.85
2024-02-14T04:47:18.419Z,2.87
2024-02-14T04:48:18.439Z,2.88
2024-02-14T04:49:18.393Z,2.88
2024-02-14T04:50:18.257Z,2.85
2024-02-14T04:51:18.268Z,2.84
2024-02-14T04:52:18.215Z,2.84
2024-02-14T04:53:18.131Z,2.84
2024-02-14T04:54:18.110Z,2.85
2024-02-14T04:55:18.074Z,2.87
2024-02-14T04:56:18.036Z,2.91
2024-02-14T04:57:18.081Z,2.90
2024-02-14T04:58:17.969Z,2.93
2024-02-14T04:59:17.923Z,2.94
2024-02-14T05:00:18.039Z,2.93
2024-02-14T05:01:17.888Z,2.94
2024-02-14T05:02:17.882Z,2.94
2024-02-14T05:03:17.848Z,2.98
2024-02-14T05:04:17.994Z,2.99
2024-02-14T05:05:17.856Z,3.01
2024-02-14T05:06:17.757Z,3.01
2024-02-14T05:07:17.662Z,3.03
2024-02-14T05:08:17.611Z,3.05
2024-02-14T05:09:17.582Z,3.06
2024-02-14T05:10:17.516Z,3.08
2024-02-14T05:11:17.470Z,3.08
2024-02-14T05:12:17.558Z,3.09
2024-02-14T05:13:17.400Z,3.09
2024-02-14T05:14:17.447Z,3.09
2024-02-14T05:15:17.344Z,3.09
2024-02-14T05:16:17.287Z,3.11
2024-02-14T05:17:17.324Z,3.12
2024-02-14T05:18:17.367Z,3.13
2024-02-14T05:19:17.418Z,3.16
2024-02-14T05:20:17.140Z,3.16
2024-02-14T05:21:17.124Z,3.16
2024-02-14T05:22:17.089Z,3.16
2024-02-14T05:23:16.992Z,3.16
2024-02-14T05:24:17.198Z,3.16
2024-02-14T05:25:16.923Z,3.13
2024-02-14T05:26:16.875Z,3.17
2024-02-14T05:27:16.925Z,3.17
2024-02-14T05:28:16.805Z,3.19
2024-02-14T05:29:16.752Z,3.16
2024-02-14T05:30:16.789Z,3.17
2024-02-14T05:31:16.692Z,3.16
2024-02-14T05:32:16.708Z,3.16
2024-02-14T05:33:16.824Z,3.17
2024-02-14T05:34:16.805Z,3.17
2024-02-14T05:35:16.518Z,3.17
2024-02-14T05:36:16.570Z,3.19
2024-02-14T05:37:16.497Z,3.20
2024-02-14T05:38:16.425Z,3.21
2024-02-14T05:39:16.352Z,3.20
2024-02-14T05:40:16.307Z,3.20
2024-02-14T05:41:16.250Z,3.19
2024-02-14T05:42:16.296Z,3.21
2024-02-14T05:43:16.186Z,3.21
2024-02-14T05:44:16.131Z,3.23
2024-02-14T05:45:16.139Z,3.26
2024-02-14T05:46:16.064Z,3.24
2024-02-14T05:47:16.029Z,3.23
2024-02-14T05:48:16.214Z,3.24
2024-02-14T05:49:16.188Z,3.23
2024-02-14T05:50:15.912Z,3.24
2024-02-14T05:51:15.866Z,3.26
2024-02-14T05:52:15.808Z,3.24
2024-02-14T05:53:15.727Z,3.24
2024-02-14T05:54:15.764Z,3.23
2024-02-14T05:55:15.640Z,3.26
2024-02-14T05:56:15.667Z,3.24
2024-02-14T05:57:15.693Z,3.29
2024-02-14T05:58:15.535Z,3.29
2024-02-14T05:59:15.469Z,3.27
2024-02-14T06:00:15.531Z,3.27
2024-02-14T06:01:15.399Z,3.29
2024-02-14T06:02:15.376Z,3.29
2024-02-14T06:03:15.330Z,3.29
2024-02-14T06:04:15.321Z,3.30
2024-02-14T06:05:15.206Z,3.30
2024-02-14T06:06:15.335Z,3.34
2024-02-14T06:07:15.196Z,3.31
2024-02-14T06:08:15.078Z,3.35
2024-02-14T06:09:15.116Z,3.39
2024-02-14T06:10:14.987Z,3.35
2024-02-14T06:11:14.941Z,3.35
2024-02-14T06:12:15.004Z,3.35
2024-02-14T06:13:14.872Z,3.34
2024-02-14T06:14:14.807Z,3.35
2024-02-14T06:15:14.883Z,3.37
2024-02-14T06:16:14.741Z,3.37
2024-02-14T06:17:14.738Z,3.37
2024-02-14T06:18:14.680Z,3.37
2024-02-14T06:19:14.782Z,3.37
2024-02-14T06:20:14.583Z,3.37
2024-02-14T06:21:14.614Z,3.37
2024-02-14T06:22:14.650Z,3.39
2024-02-14T06:23:14.457Z,3.40
2024-02-14T06:24:14.481Z,3.42
2024-02-14T06:25:14.422Z,3.42
2024-02-14T06:26:14.300Z,3.40
2024-02-14T06:27:14.380Z,3.45
2024-02-14T06:28:14.216Z,3.45
2024-02-14T06:29:14.165Z,3.45
2024-02-14T06:30:14.253Z,3.46
2024-02-14T06:31:14.076Z,3.46
2024-02-14T06:32:14.137Z,3.46
2024-02-14T06:33:14.143Z,3.48
2024-02-14T06:34:14.131Z,3.48
2024-02-14T06:35:14.142Z,3.49
2024-02-14T06:36:13.910Z,3.49
2024-02-14T06:37:13.846Z,3.50
2024-02-14T06:38:13.776Z,3.49
2024-02-14T06:39:13.732Z,3.50
2024-02-14T06:40:13.696Z,3.52
2024-02-14T06:41:13.640Z,3.54
2024-02-14T06:42:13.666Z,3.54
2024-02-14T06:43:13.569Z,3.56
2024-02-14T06:44:13.502Z,3.56
2024-02-14T06:45:13.528Z,3.57
2024-02-14T06:46:13.428Z,3.57
2024-02-14T06:47:13.417Z,3.60
2024-02-14T06:48:13.454Z,3.60
2024-02-14T06:49:13.453Z,3.61
2024-02-14T06:50:13.255Z,3.61
2024-02-14T06:51:13.409Z,3.63
2024-02-14T06:52:13.179Z,3.60
2024-02-14T06:53:13.106Z,3.63
2024-02-14T06:54:13.108Z,3.64
2024-02-14T06:55:13.031Z,3.67
2024-02-14T06:56:12.998Z,3.66
2024-02-14T06:57:13.004Z,3.67
2024-02-14T06:58:13.001Z,3.67
2024-02-14T06:59:12.963Z,3.67
2024-02-14T07:00:12.886Z,3.67
2024-02-14T07:01:12.798Z,3.68
2024-02-14T07:02:14.205Z,3.70
2024-02-14T07:03:12.837Z,3.74
2024-02-14T07:04:12.714Z,3.72
2024-02-14T07:05:12.585Z,3.74
2024-02-14T07:06:12.657Z,3.74
2024-02-14T07:07:12.567Z,3.75
2024-02-14T07:08:12.454Z,3.75
2024-02-14T07:09:13.611Z,3.76
2024-02-14T07:10:12.378Z,3.76
2024-02-14T07:11:12.338Z,3.75
2024-02-14T07:12:12.441Z,3.78
2024-02-14T07:13:12.221Z,3.78
2024-02-14T07:14:12.201Z,3.79
2024-02-14T07:15:12.158Z,3.79
2024-02-14T07:16:12.231Z,3.82
2024-02-14T07:17:12.077Z,3.84
2024-02-14T07:18:12.083Z,3.85
2024-02-14T07:19:12.122Z,3.86
2024-02-14T07:20:11.921Z,3.89
2024-02-14T07:21:11.972Z,3.92
2024-02-14T07:22:11.874Z,3.94
2024-02-14T07:23:11.805Z,3.97
2024-02-14T07:24:11.799Z,3.96
2024-02-14T07:25:11.721Z,3.97
2024-02-14T07:26:11.685Z,3.99
2024-02-14T07:27:12.126Z,4.00
2024-02-14T07:28:11.608Z,4.00
2024-02-14T07:29:11.593Z,4.04
2024-02-14T07:30:11.559Z,4.02
2024-02-14T07:31:11.467Z,4.04
2024-02-14T07:32:11.395Z,4.06
2024-02-14T07:33:11.408Z,4.06
2024-02-14T07:34:11.482Z,4.07
2024-02-14T07:35:11.291Z,4.11
2024-02-14T07:36:11.226Z,4.11
2024-02-14T07:37:11.158Z,4.11
2024-02-14T07:38:11.141Z,4.12
2024-02-14T07:39:11.162Z,4.17
2024-02-14T07:40:11.032Z,4.18
2024-02-14T07:41:10.997Z,4.22
2024-02-14T07:42:10.982Z,4.22
2024-02-14T07:43:10.904Z,4.25
2024-02-14T07:44:10.837Z,4.27
2024-02-14T07:45:10.911Z,4.29
2024-02-14T07:46:10.739Z,4.30
2024-02-14T07:47:10.673Z,4.32
2024-02-14T07:48:10.735Z,4.33
2024-02-14T07:49:10.706Z,4.36
2024-02-14T07:50:10.535Z,4.36
2024-02-14T07:51:10.613Z,4.39
2024-02-14T07:52:10.439Z,4.39
2024-02-14T07:53:10.395Z,4.39
2024-02-14T07:54:10.589Z,4.42
2024-02-14T07:55:10.265Z,4.43
2024-02-14T07:56:10.241Z,4.45
2024-02-14T07:57:10.220Z,4.45
2024-02-14T07:58:10.167Z,4.48
2024-02-14T07:59:10.102Z,4.47
2024-02-14T08:00:10.082Z,4.48
2024-02-14T08:01:10.014Z,4.51
2024-02-14T08:02:09.960Z,4.50
2024-02-14T08:03:10.040Z,4.53
2024-02-14T08:04:09.872Z,4.53
2024-02-14T08:05:09.769Z,4.55
2024-02-14T08:06:09.882Z,4.55
2024-02-14T08:07:09.674Z,4.58
2024-02-14T08:08:09.620Z,4.58
2024-02-14T08:09:09.629Z,4.61
2024-02-14T08:10:09.466Z,4.63
2024-02-14T08:11:09.414Z,4.66
2024-02-14T08:12:09.385Z,4.64
2024-02-14T08:13:09.298Z,4.64
2024-02-14T08:14:09.224Z,4.66
2024-02-14T08:15:09.302Z,4.69
2024-02-14T08:16:09.115Z,4.71
2024-02-14T08:17:09.045Z,4.72
2024-02-14T08:18:10.431Z,4.72
2024-02-14T08:19:09.073Z,4.73
2024-02-14T08:20:08.915Z,4.75
2024-02-14T08:21:08.814Z,4.78
2024-02-14T08:22:08.726Z,4.79
2024-02-14T08:23:08.663Z,4.79
2024-02-14T08:24:08.686Z,4.79
2024-02-14T08:25:08.537Z,4.79
2024-02-14T08:26:08.514Z,4.83
2024-02-14T08:27:08.481Z,4.83
2024-02-14T08:28:08.360Z,4.88
2024-02-14T08:29:08.320Z,4.88
2024-02-14T08:30:08.274Z,4.88
2024-02-14T08:31:08.209Z,4.88
2024-02-14T08:32:08.139Z,4.90
2024-02-14T08:33:08.297Z,4.92
2024-02-14T08:34:08.248Z,4.95
2024-02-14T08:35:07.978Z,4.95
2024-02-14T08:36:07.995Z,4.97
2024-02-14T08:37:07.772Z,4.98
2024-02-14T08:38:07.745Z,4.98
2024-02-14T08:39:07.784Z,4.98
2024-02-14T08:40:07.603Z,5.00
2024-02-14T08:41:07.542Z,5.00
2024-02-14T08:42:07.542Z,5.00
2024-02-14T08:43:07.443Z,5.01
2024-02-14T08:44:07.360Z,5.01
2024-02-14T08:45:07.353Z,5.01
2024-02-14T08:46:07.223Z,5.01
2024-02-14T08:47:07.150Z,5.01
2024-02-14T08:48:07.325Z,5.01
2024-02-14T08:49:08.949Z,5.01
2024-02-14T08:50:07.042Z,5.03
2024-02-14T08:51:07.029Z,5.03
2024-02-14T08:52:06.845Z,5.05
2024-02-14T08:53:06.767Z,5.03
2024-02-14T08:54:06.744Z,5.03
2024-02-14T08:55:06.654Z,5.03
2024-02-14T08:56:06.585Z,5.03
2024-02-14T08:57:06.645Z,5.03
2024-02-14T08:58:06.472Z,5.05
2024-02-14T08:59:06.386Z,5.03
2024-02-14T09:00:06.360Z,5.03
2024-02-14T09:01:13.513Z,5.05
2024-02-14T09:02:06.192Z,5.06
2024-02-14T09:03:06.217Z,5.06
2024-02-14T09:04:06.122Z,5.09
2024-02-14T09:05:06.018Z,5.08
2024-02-14T09:06:06.039Z,5.10
2024-02-14T09:07:05.945Z,5.12
2024-02-14T09:08:05.821Z,5.13
2024-02-14T09:09:05.796Z,5.13
2024-02-14T09:10:05.698Z,5.12
2024-02-14T09:11:05.640Z,5.12
2024-02-14T09:12:05.844Z,5.15
2024-02-14T09:13:05.537Z,5.15
2024-02-14T09:14:05.441Z,5.16
2024-02-14T09:15:05.408Z,5.17
2024-02-14T09:16:05.329Z,5.17
2024-02-14T09:17:05.241Z,5.19
2024-02-14T09:18:05.292Z,5.19
2024-02-14T09:19:05.152Z,5.19
2024-02-14T09:20:05.166Z,5.19
2024-02-14T09:21:05.023Z,5.23
2024-02-14T09:22:04.917Z,5.23
2024-02-14T09:23:04.826Z,5.23
2024-02-14T09:24:05.007Z,5.23
2024-02-14T09:25:04.689Z,5.23
2024-02-14T09:26:04.629Z,5.24
2024-02-14T09:27:04.653Z,5.24
2024-02-14T09:28:04.535Z,5.26
2024-02-14T09:29:04.476Z,5.27
2024-02-14T09:30:04.407Z,5.28
2024-02-14T09:31:04.278Z,5.28
2024-02-14T09:32:04.214Z,5.31
2024-02-14T09:33:04.298Z,5.30
2024-02-14T09:34:04.296Z,5.31
2024-02-14T09:35:04.116Z,5.34
2024-02-14T09:36:04.016Z,5.34
2024-02-14T09:37:03.857Z,5.35
2024-02-14T09:38:03.800Z,5.37
2024-02-14T09:39:03.801Z,5.41
2024-02-14T09:40:03.695Z,5.42
2024-02-14T09:41:03.574Z,5.45
2024-02-14T09:42:03.656Z,5.45
2024-02-14T09:43:03.442Z,5.46
2024-02-14T09:44:03.366Z,5.46
2024-02-14T09:45:03.381Z,5.49
2024-02-14T09:46:03.241Z,5.48
2024-02-14T09:47:03.141Z,5.51
2024-02-14T09:48:03.222Z,5.53
2024-02-14T09:49:03.162Z,5.56
2024-02-14T09:50:02.930Z,5.56
2024-02-14T09:51:02.909Z,5.56
2024-02-14T09:52:02.772Z,5.60
2024-02-14T09:53:02.701Z,5.60
2024-02-14T09:54:02.709Z,5.61
2024-02-14T09:55:02.569Z,5.61
2024-02-14T09:56:02.514Z,5.63
2024-02-14T09:57:02.464Z,5.64
2024-02-14T09:58:02.336Z,5.64
2024-02-14T09:59:02.226Z,5.66
2024-02-14T10:00:02.197Z,5.66
2024-02-14T10:01:02.146Z,5.67
2024-02-14T10:02:02.032Z,5.69
2024-02-14T10:03:02.017Z,5.69
2024-02-14T10:04:01.863Z,5.71
2024-02-14T10:05:01.905Z,5.71
2024-02-14T10:06:01.838Z,5.73
2024-02-14T10:07:01.667Z,5.74
2024-02-14T10:08:01.585Z,5.74
2024-02-14T10:09:04.297Z,5.74
2024-02-14T10:10:01.420Z,5.76
2024-02-14T10:11:01.362Z,5.78
2024-02-14T10:12:01.375Z,5.78
2024-02-14T10:13:01.190Z,5.79
2024-02-14T10:14:01.171Z,5.79
2024-02-14T10:15:01.057Z,5.81
2024-02-14T10:16:00.948Z,5.82
2024-02-14T10:17:00.868Z,5.82
2024-02-14T10:18:00.900Z,5.81
2024-02-14T10:19:01.289Z,5.81
2024-02-14T10:20:00.716Z,5.82
2024-02-14T10:21:00.574Z,5.85
2024-02-14T10:22:00.468Z,5.85
2024-02-14T10:23:00.361Z,5.85
2024-02-14T10:24:00.352Z,5.88
2024-02-14T10:25:00.200Z,5.89
2024-02-14T10:26:00.129Z,5.88
2024-02-14T10:27:00.078Z,5.89
2024-02-14T10:27:59.967Z,5.89
2024-02-14T10:28:59.887Z,5.92
2024-02-14T10:29:59.865Z,5.95
2024-02-14T10:30:59.719Z,5.97
2024-02-14T10:31:59.648Z,5.95
2024-02-14T10:33:07.333Z,5.97
2024-02-14T10:33:59.662Z,5.95
2024-02-14T10:34:59.472Z,6.02
2024-02-14T10:36:02.449Z,6.02
2024-02-14T10:36:59.237Z,6.06
2024-02-14T10:37:59.157Z,6.07
2024-02-14T10:38:59.121Z,6.09
2024-02-14T10:39:59.011Z,6.10
2024-02-14T10:40:58.904Z,6.10
2024-02-14T10:41:58.901Z,6.13
2024-02-14T10:42:58.735Z,6.13
2024-02-14T10:43:58.674Z,6.15
2024-02-14T10:44:58.607Z,6.15
2024-02-14T10:45:58.492Z,6.15
2024-02-14T10:46:58.406Z,6.18
2024-02-14T10:47:58.461Z,6.17
2024-02-14T10:48:58.329Z,6.17
2024-02-14T10:49:58.249Z,6.18
2024-02-14T10:50:58.099Z,6.20
2024-02-14T10:51:57.986Z,6.20
2024-02-14T10:52:57.921Z,6.20
2024-02-14T10:53:57.852Z,6.21
2024-02-14T10:54:57.746Z,6.21
2024-02-14T10:55:57.632Z,6.22
2024-02-14T10:56:57.545Z,6.25
2024-02-14T10:57:57.461Z,6.25
2024-02-14T10:58:57.389Z,6.25
2024-02-14T10:59:57.301Z,6.26
2024-02-14T11:00:57.226Z,6.26
2024-02-14T11:01:57.140Z,6.25
2024-02-14T11:02:57.067Z,6.25
2024-02-14T11:03:57.090Z,6.26
2024-02-14T11:04:56.811Z,6.28
2024-02-14T11:05:56.857Z,6.29
2024-02-14T11:06:56.642Z,6.32
2024-02-14T11:07:56.556Z,6.33
2024-02-14T11:08:56.518Z,6.36
2024-02-14T11:09:56.411Z,6.36
2024-02-14T11:10:56.282Z,6.40
2024-02-14T11:11:56.203Z,6.41
2024-02-14T11:12:56.104Z,6.44
2024-02-14T11:13:56.047Z,6.46
2024-02-14T11:14:55.961Z,6.47
2024-02-14T11:15:55.871Z,6.51
2024-02-14T11:16:55.730Z,6.54
2024-02-14T11:17:55.773Z,6.57
2024-02-14T11:18:55.662Z,6.59
2024-02-14T11:19:55.719Z,6.61
2024-02-14T11:20:55.415Z,6.62
2024-02-14T11:21:55.299Z,6.67
2024-02-14T11:22:55.177Z,6.67
2024-02-14T11:23:55.206Z,6.69
2024-02-14T11:24:54.998Z,6.75
2024-02-14T11:25:54.921Z,6.75
2024-02-14T11:26:54.881Z,6.77
2024-02-14T11:27:54.726Z,6.79
2024-02-14T11:28:54.671Z,6.80
2024-02-14T11:29:54.571Z,6.82
2024-02-14T11:30:54.434Z,6.83
2024-02-14T11:31:54.342Z,6.84
2024-02-14T11:32:54.320Z,6.84
2024-02-14T11:33:54.395Z,6.86
2024-02-14T11:34:54.101Z,6.87
2024-02-14T11:35:53.980Z,6.89
2024-02-14T11:36:53.829Z,6.87
2024-02-14T11:37:53.716Z,6.91
2024-02-14T11:38:53.658Z,6.89
2024-02-14T11:39:53.543Z,6.89
2024-02-14T11:40:55.676Z,6.91
2024-02-14T11:41:53.402Z,6.92
2024-02-14T11:42:53.221Z,6.92
2024-02-14T11:43:53.130Z,6.92
2024-02-14T11:44:53.110Z,6.89
2024-02-14T11:45:52.931Z,6.91
2024-02-14T11:46:52.816Z,6.89
2024-02-14T11:47:52.826Z,6.84
2024-02-14T11:48:52.799Z,6.84
2024-02-14T11:49:52.550Z,6.84
2024-02-14T11:50:52.532Z,6.83
2024-02-14T11:51:52.322Z,6.83
2024-02-14T11:52:52.218Z,6.82
2024-02-14T11:53:52.174Z,6.83
2024-02-14T11:54:52.026Z,6.82
2024-02-14T11:55:51.932Z,6.80
2024-02-14T11:56:51.870Z,6.80
2024-02-14T11:57:51.734Z,6.79
2024-02-14T11:58:51.663Z,6.80
2024-02-14T11:59:51.575Z,6.79
2024-02-14T12:00:51.434Z,6.82
2024-02-14T12:01:51.328Z,6.80
2024-02-14T12:02:51.216Z,6.80
2024-02-14T12:03:51.109Z,6.80
2024-02-14T12:04:51.034Z,6.82
2024-02-14T12:05:51.007Z,6.80
2024-02-14T12:06:50.840Z,6.83
2024-02-14T12:07:50.711Z,6.82
2024-02-14T12:08:50.580Z,6.86
2024-02-14T12:09:50.493Z,6.84
2024-02-14T12:10:50.468Z,6.86
2024-02-14T12:11:50.324Z,6.86
2024-02-14T12:12:50.240Z,6.86
2024-02-14T12:13:50.105Z,6.87
2024-02-14T12:14:49.994Z,6.89
2024-02-14T12:15:49.838Z,6.91
2024-02-14T12:16:49.736Z,6.89
2024-02-14T12:17:49.800Z,6.89
2024-02-14T12:18:49.814Z,6.92
2024-02-14T12:19:49.921Z,6.94
2024-02-14T12:20:50.802Z,6.89
2024-02-14T12:21:49.237Z,6.92
2024-02-14T12:22:49.131Z,6.94
2024-02-14T12:23:49.093Z,6.94
2024-02-14T12:24:48.959Z,6.95
2024-02-14T12:25:48.880Z,6.98
2024-02-14T12:26:48.787Z,7.00
2024-02-14T12:27:48.637Z,7.00
2024-02-14T12:28:48.549Z,6.98
2024-02-14T12:29:48.668Z,6.98
2024-02-14T12:30:48.309Z,6.98
2024-02-14T12:31:48.217Z,6.98
2024-02-14T12:32:48.143Z,6.98
2024-02-14T12:33:48.121Z,6.97
2024-02-14T12:34:47.990Z,6.98
2024-02-14T12:35:47.947Z,6.98
2024-02-14T12:36:47.674Z,7.00
2024-02-14T12:37:47.598Z,7.00
2024-02-14T12:38:47.564Z,7.01
2024-02-14T12:39:47.413Z,7.04
2024-02-14T12:40:47.286Z,7.04
2024-02-14T12:41:47.190Z,7.04
2024-02-14T12:42:47.074Z,7.07
2024-02-14T12:43:46.971Z,7.07
2024-02-14T12:44:46.883Z,7.07
2024-02-14T12:45:46.745Z,7.10
2024-02-14T12:46:46.636Z,7.12
2024-02-14T12:47:46.606Z,7.13
2024-02-14T12:48:46.548Z,7.12
2024-02-14T12:49:46.417Z,7.13
2024-02-14T12:50:46.308Z,7.12
2024-02-14T12:51:46.105Z,7.13
2024-02-14T12:52:46.003Z,7.13
2024-02-14T12:53:45.966Z,7.15
2024-02-14T12:54:45.793Z,7.16
2024-02-14T12:55:45.687Z,7.16
2024-02-14T12:56:45.617Z,7.16
2024-02-14T12:57:45.488Z,7.19
2024-02-14T12:58:45.346Z,7.18
2024-02-14T12:59:45.334Z,7.18
2024-02-14T13:00:45.280Z,7.18
2024-02-14T13:01:45.161Z,7.18
2024-02-14T13:02:45.009Z,7.18
2024-02-14T13:03:44.910Z,7.22
2024-02-14T13:04:44.760Z,7.25
2024-02-14T13:05:44.705Z,7.25
2024-02-14T13:06:44.572Z,7.26
2024-02-14T13:07:44.402Z,7.28
2024-02-14T13:08:44.291Z,7.31
2024-02-14T13:09:44.191Z,7.31
2024-02-14T13:10:44.064Z,7.34
2024-02-14T13:11:44.049Z,7.34
2024-02-14T13:12:43.848Z,7.34
2024-02-14T13:13:43.860Z,7.37
2024-02-14T13:14:43.681Z,7.37
2024-02-14T13:15:43.521Z,7.40
2024-02-14T13:16:43.450Z,7.40
2024-02-14T13:17:43.432Z,7.40
2024-02-14T13:18:43.325Z,7.41